Terminal Aerodrome Forecast
Issued by NWS

Home | Current Version | Previous Version | Text Only | Print | Product List | Glossary On
Versions: 1 2 3 4 5 6 7 8 9 10 11 12 13 14 15 16 17 18 19 20 21 22 23 24 25 26 27 28 29 30 31 32 33 34 35 36 37 38 39 40
000
FTUS45 KBOU 212320
TAFAPA
TAF
KAPA 212320Z 2200/2224 03010KT P6SM FEW090 SCT150
     FM220200 01006KT P6SM SCT090 SCT150 BKN200
     FM220800 32006KT P6SM SCT020 SCT120
     FM221200 01006KT P6SM SCT008 BKN020
     FM221500 14008KT P6SM FEW020 SCT120=

USA.gov is the U.S. government's official web portal to all federal, state and local government web resources and services.